sensor_id;sensor_type;location;lat;lon;timestamp;pressure;altitude;pressure_sealevel;temperature;humidity
19761;BME280;10039;42.632;23.408;2023-05-24T00:01:40;94746.22;;;14.45;65.53
19761;BME280;10039;42.632;23.408;2023-05-24T00:04:07;94787.53;;;14.48;66.50
19761;BME280;10039;42.632;23.408;2023-05-24T00:06:33;94788.09;;;14.43;66.57
19761;BME280;10039;42.632;23.408;2023-05-24T00:09:04;94791.81;;;14.36;66.56
19761;BME280;10039;42.632;23.408;2023-05-24T00:11:30;94787.38;;;14.42;66.71
19761;BME280;10039;42.632;23.408;2023-05-24T00:13:55;94795.81;;;14.62;65.93
19761;BME280;10039;42.632;23.408;2023-05-24T00:16:21;94793.59;;;14.69;65.45
19761;BME280;10039;42.632;23.408;2023-05-24T00:18:46;94788.69;;;14.68;65.33
19761;BME280;10039;42.632;23.408;2023-05-24T00:21:12;94772.53;;;14.59;65.31
19761;BME280;10039;42.632;23.408;2023-05-24T00:23:38;94793.75;;;14.66;65.71
19761;BME280;10039;42.632;23.408;2023-05-24T00:26:04;94765.44;;;14.44;65.93
19761;BME280;10039;42.632;23.408;2023-05-24T00:28:30;94776.59;;;14.72;65.45
19761;BME280;10039;42.632;23.408;2023-05-24T00:30:56;94789.63;;;14.83;65.16
19761;BME280;10039;42.632;23.408;2023-05-24T00:33:22;94794.00;;;14.89;64.85
19761;BME280;10039;42.632;23.408;2023-05-24T00:35:48;94794.69;;;14.72;64.81
19761;BME280;10039;42.632;23.408;2023-05-24T00:38:15;94794.06;;;14.68;65.14
19761;BME280;10039;42.632;23.408;2023-05-24T00:40:41;94784.19;;;14.65;64.99
19761;BME280;10039;42.632;23.408;2023-05-24T00:43:06;94785.75;;;14.75;65.45
19761;BME280;10039;42.632;23.408;2023-05-24T00:45:31;94793.81;;;14.84;65.25
19761;BME280;10039;42.632;23.408;2023-05-24T00:47:57;94778.63;;;14.90;64.88
19761;BME280;10039;42.632;23.408;2023-05-24T00:50:23;94793.28;;;14.98;64.81
19761;BME280;10039;42.632;23.408;2023-05-24T00:52:50;94787.78;;;15.01;64.18
19761;BME280;10039;42.632;23.408;2023-05-24T00:55:16;94765.13;;;14.72;64.93
19761;BME280;10039;42.632;23.408;2023-05-24T00:57:41;94788.38;;;15.05;64.31
19761;BME280;10039;42.632;23.408;2023-05-24T01:00:08;94799.13;;;14.96;64.75
19761;BME280;10039;42.632;23.408;2023-05-24T01:02:35;94796.09;;;14.85;65.68
19761;BME280;10039;42.632;23.408;2023-05-24T01:05:02;94786.94;;;14.74;65.66
19761;BME280;10039;42.632;23.408;2023-05-24T01:07:53;94790.03;;;14.72;65.72
19761;BME280;10039;42.632;23.408;2023-05-24T01:10:38;94793.59;;;14.69;66.38
19761;BME280;10039;42.632;23.408;2023-05-24T01:13:07;94784.81;;;14.69;65.93
19761;BME280;10039;42.632;23.408;2023-05-24T01:18:32;94782.50;;;14.28;67.30
19761;BME280;10039;42.632;23.408;2023-05-24T01:29:22;94799.16;;;14.23;67.70
19761;BME280;10039;42.632;23.408;2023-05-24T01:31:48;94811.13;;;14.10;68.15
19761;BME280;10039;42.632;23.408;2023-05-24T01:34:14;94814.56;;;14.10;68.15
19761;BME280;10039;42.632;23.408;2023-05-24T01:36:39;94802.84;;;14.17;67.88
19761;BME280;10039;42.632;23.408;2023-05-24T01:39:05;94805.47;;;14.29;67.54
19761;BME280;10039;42.632;23.408;2023-05-24T01:41:42;94803.66;;;14.26;67.20
19761;BME280;10039;42.632;23.408;2023-05-24T01:46:55;94801.78;;;14.36;66.52
19761;BME280;10039;42.632;23.408;2023-05-24T01:49:26;94805.66;;;14.35;66.90
19761;BME280;10039;42.632;23.408;2023-05-24T01:52:02;94801.28;;;14.28;67.06
19761;BME280;10039;42.632;23.408;2023-05-24T01:54:32;94805.38;;;14.33;66.88
19761;BME280;10039;42.632;23.408;2023-05-24T01:56:57;94809.28;;;14.41;67.00
19761;BME280;10039;42.632;23.408;2023-05-24T01:59:25;94807.66;;;14.43;66.60
19761;BME280;10039;42.632;23.408;2023-05-24T02:01:52;94809.78;;;14.48;66.71
19761;BME280;10039;42.632;23.408;2023-05-24T02:04:17;94805.91;;;14.49;66.82
19761;BME280;10039;42.632;23.408;2023-05-24T02:06:43;94803.50;;;14.51;66.53
19761;BME280;10039;42.632;23.408;2023-05-24T02:09:08;94800.78;;;14.42;66.83
19761;BME280;10039;42.632;23.408;2023-05-24T02:11:34;94797.78;;;14.40;66.96
19761;BME280;10039;42.632;23.408;2023-05-24T02:13:59;94807.97;;;14.45;66.45
19761;BME280;10039;42.632;23.408;2023-05-24T02:16:25;94794.41;;;14.49;66.28
19761;BME280;10039;42.632;23.408;2023-05-24T02:18:51;94796.94;;;14.52;66.50
19761;BME280;10039;42.632;23.408;2023-05-24T02:21:16;94781.38;;;14.38;66.69
19761;BME280;10039;42.632;23.408;2023-05-24T02:23:42;94783.81;;;14.45;66.33
19761;BME280;10039;42.632;23.408;2023-05-24T02:26:07;94753.22;;;14.21;66.50
19761;BME280;10039;42.632;23.408;2023-05-24T02:28:36;94779.56;;;14.35;66.14
19761;BME280;10039;42.632;23.408;2023-05-24T02:31:02;94768.09;;;14.13;66.45
19761;BME280;10039;42.632;23.408;2023-05-24T02:33:27;94773.66;;;14.19;66.98
19761;BME280;10039;42.632;23.408;2023-05-24T02:35:54;94778.88;;;14.01;67.57
19761;BME280;10039;42.632;23.408;2023-05-24T02:38:21;94789.63;;;13.88;68.79
19761;BME280;10039;42.632;23.408;2023-05-24T02:40:46;94779.50;;;13.71;69.13
19761;BME280;10039;42.632;23.408;2023-05-24T02:43:12;94777.19;;;13.60;69.92
19761;BME280;10039;42.632;23.408;2023-05-24T02:45:37;94777.19;;;13.60;69.61
19761;BME280;10039;42.632;23.408;2023-05-24T02:48:02;94776.63;;;13.65;69.75
19761;BME280;10039;42.632;23.408;2023-05-24T02:50:28;94777.00;;;13.55;69.88
19761;BME280;10039;42.632;23.408;2023-05-24T02:52:53;94781.69;;;13.63;69.66
19761;BME280;10039;42.632;23.408;2023-05-24T02:55:19;94782.38;;;13.55;70.25
19761;BME280;10039;42.632;23.408;2023-05-24T02:57:44;94781.84;;;13.47;70.53
19761;BME280;10039;42.632;23.408;2023-05-24T03:00:12;94786.59;;;13.31;70.68
19761;BME280;10039;42.632;23.408;2023-05-24T03:02:38;94787.66;;;13.34;70.46
19761;BME280;10039;42.632;23.408;2023-05-24T03:05:08;94752.78;;;12.87;71.41
19761;BME280;10039;42.632;23.408;2023-05-24T03:07:33;94788.34;;;13.13;71.34
19761;BME280;10039;42.632;23.408;2023-05-24T03:09:59;94785.53;;;13.29;70.81
19761;BME280;10039;42.632;23.408;2023-05-24T03:12:24;94775.50;;;13.08;70.55
19761;BME280;10039;42.632;23.408;2023-05-24T03:14:49;94787.25;;;13.23;70.69
19761;BME280;10039;42.632;23.408;2023-05-24T03:17:15;94804.34;;;13.50;70.92
19761;BME280;10039;42.632;23.408;2023-05-24T03:19:40;94805.81;;;13.63;70.05
19761;BME280;10039;42.632;23.408;2023-05-24T03:22:06;94782.81;;;13.53;69.31
19761;BME280;10039;42.632;23.408;2023-05-24T03:24:32;94793.44;;;13.78;69.21
19761;BME280;10039;42.632;23.408;2023-05-24T03:26:58;94808.19;;;13.95;68.64
19761;BME280;10039;42.632;23.408;2023-05-24T03:29:23;94802.69;;;13.77;69.44
19761;BME280;10039;42.632;23.408;2023-05-24T03:31:48;94813.72;;;13.79;69.65
19761;BME280;10039;42.632;23.408;2023-05-24T03:34:14;94823.03;;;13.53;70.46
19761;BME280;10039;42.632;23.408;2023-05-24T03:36:39;94824.31;;;13.49;70.81
19761;BME280;10039;42.632;23.408;2023-05-24T03:39:06;94803.78;;;13.21;71.58
19761;BME280;10039;42.632;23.408;2023-05-24T03:41:32;94831.50;;;13.40;71.58
19761;BME280;10039;42.632;23.408;2023-05-24T03:43:59;94805.47;;;13.28;71.10
19761;BME280;10039;42.632;23.408;2023-05-24T03:46:24;94837.13;;;13.66;70.64
19761;BME280;10039;42.632;23.408;2023-05-24T03:48:50;94825.75;;;13.75;70.28
19761;BME280;10039;42.632;23.408;2023-05-24T03:51:15;94821.56;;;13.74;70.62
19761;BME280;10039;42.632;23.408;2023-05-24T03:53:41;94810.22;;;13.70;70.27
19761;BME280;10039;42.632;23.408;2023-05-24T03:56:06;94782.38;;;13.55;70.91
19761;BME280;10039;42.632;23.408;2023-05-24T03:58:32;94820.31;;;13.87;70.48
19761;BME280;10039;42.632;23.408;2023-05-24T04:00:57;94803.63;;;13.83;70.18
19761;BME280;10039;42.632;23.408;2023-05-24T04:03:23;94824.19;;;13.86;71.01
19761;BME280;10039;42.632;23.408;2023-05-24T04:05:50;94834.78;;;13.68;72.66
19761;BME280;10039;42.632;23.408;2023-05-24T04:08:15;94837.31;;;13.84;72.00
19761;BME280;10039;42.632;23.408;2023-05-24T04:10:40;94807.88;;;13.59;71.98
19761;BME280;10039;42.632;23.408;2023-05-24T04:13:07;94830.13;;;13.81;72.07
19761;BME280;10039;42.632;23.408;2023-05-24T04:15:33;94800.63;;;13.81;71.58
19761;BME280;10039;42.632;23.408;2023-05-24T04:17:58;94807.81;;;14.06;70.86
19761;BME280;10039;42.632;23.408;2023-05-24T04:20:24;94816.91;;;14.21;70.10
19761;BME280;10039;42.632;23.408;2023-05-24T04:22:52;94833.38;;;14.53;68.99
19761;BME280;10039;42.632;23.408;2023-05-24T04:25:18;94832.13;;;14.45;68.54
19761;BME280;10039;42.632;23.408;2023-05-24T04:27:44;94834.03;;;14.66;67.62
19761;BME280;10039;42.632;23.408;2023-05-24T04:30:13;94835.53;;;14.67;67.69
19761;BME280;10039;42.632;23.408;2023-05-24T04:32:40;94813.59;;;14.68;67.42
19761;BME280;10039;42.632;23.408;2023-05-24T04:35:05;94837.97;;;15.04;67.54
19761;BME280;10039;42.632;23.408;2023-05-24T04:37:32;94839.34;;;15.18;67.78
19761;BME280;10039;42.632;23.408;2023-05-24T04:39:57;94819.81;;;15.17;67.33
19761;BME280;10039;42.632;23.408;2023-05-24T04:42:23;94844.25;;;15.50;66.56
19761;BME280;10039;42.632;23.408;2023-05-24T04:44:48;94837.25;;;15.52;67.06
19761;BME280;10039;42.632;23.408;2023-05-24T04:47:14;94857.44;;;15.57;66.61
19761;BME280;10039;42.632;23.408;2023-05-24T04:49:40;94859.41;;;15.56;66.13
19761;BME280;10039;42.632;23.408;2023-05-24T04:52:06;94862.56;;;15.73;66.02
19761;BME280;10039;42.632;23.408;2023-05-24T04:54:32;94862.28;;;15.88;66.26
19761;BME280;10039;42.632;23.408;2023-05-24T04:56:57;94869.19;;;15.98;65.56
19761;BME280;10039;42.632;23.408;2023-05-24T04:59:23;94869.16;;;15.80;65.90
19761;BME280;10039;42.632;23.408;2023-05-24T05:01:49;94871.84;;;15.80;66.71
19761;BME280;10039;42.632;23.408;2023-05-24T05:04:14;94856.00;;;15.82;66.81
19761;BME280;10039;42.632;23.408;2023-05-24T05:06:40;94850.03;;;15.87;66.31
19761;BME280;10039;42.632;23.408;2023-05-24T05:09:08;94883.41;;;16.08;66.07
19761;BME280;10039;42.632;23.408;2023-05-24T05:11:37;94879.97;;;16.16;65.96
19761;BME280;10039;42.632;23.408;2023-05-24T05:14:03;94876.84;;;16.18;66.05
19761;BME280;10039;42.632;23.408;2023-05-24T05:16:29;94833.00;;;16.08;65.26
19761;BME280;10039;42.632;23.408;2023-05-24T05:18:54;94872.38;;;16.42;65.29
19761;BME280;10039;42.632;23.408;2023-05-24T05:21:20;94865.91;;;16.48;65.35
19761;BME280;10039;42.632;23.408;2023-05-24T05:23:45;94867.06;;;16.74;64.88
19761;BME280;10039;42.632;23.408;2023-05-24T05:26:11;94865.88;;;16.84;64.21
19761;BME280;10039;42.632;23.408;2023-05-24T05:28:36;94854.59;;;16.94;64.28
19761;BME280;10039;42.632;23.408;2023-05-24T05:31:02;94861.47;;;17.04;63.59
19761;BME280;10039;42.632;23.408;2023-05-24T05:33:30;94852.50;;;16.98;64.12
19761;BME280;10039;42.632;23.408;2023-05-24T05:35:56;94837.00;;;17.17;62.93
19761;BME280;10039;42.632;23.408;2023-05-24T05:38:21;94845.06;;;17.26;61.66
19761;BME280;10039;42.632;23.408;2023-05-24T05:40:46;94855.75;;;17.53;61.97
19761;BME280;10039;42.632;23.408;2023-05-24T05:43:12;94861.97;;;17.91;61.48
19761;BME280;10039;42.632;23.408;2023-05-24T05:45:37;94863.00;;;18.17;60.26
19761;BME280;10039;42.632;23.408;2023-05-24T05:48:03;94869.22;;;18.32;59.94
19761;BME280;10039;42.632;23.408;2023-05-24T05:50:28;94866.38;;;18.50;59.42
19761;BME280;10039;42.632;23.408;2023-05-24T05:52:53;94825.78;;;18.35;57.53
19761;BME280;10039;42.632;23.408;2023-05-24T05:55:19;94842.59;;;18.54;57.06
19761;BME280;10039;42.632;23.408;2023-05-24T05:57:45;94849.91;;;18.62;56.51
19761;BME280;10039;42.632;23.408;2023-05-24T06:00:11;94859.03;;;18.79;57.04
19761;BME280;10039;42.632;23.408;2023-05-24T06:02:36;94836.19;;;18.80;56.49
19761;BME280;10039;42.632;23.408;2023-05-24T06:05:01;94869.69;;;19.26;54.37
19761;BME280;10039;42.632;23.408;2023-05-24T06:07:27;94871.63;;;19.40;53.04
19761;BME280;10039;42.632;23.408;2023-05-24T06:09:53;94865.59;;;19.30;55.14
19761;BME280;10039;42.632;23.408;2023-05-24T06:12:18;94853.63;;;19.37;56.07
19761;BME280;10039;42.632;23.408;2023-05-24T06:14:43;94854.97;;;19.61;55.23
19761;BME280;10039;42.632;23.408;2023-05-24T06:17:09;94881.47;;;19.92;54.55
19761;BME280;10039;42.632;23.408;2023-05-24T06:19:35;94874.84;;;19.93;55.15
19761;BME280;10039;42.632;23.408;2023-05-24T06:22:00;94874.47;;;20.00;54.31
19761;BME280;10039;42.632;23.408;2023-05-24T06:24:26;94871.53;;;20.18;54.00
19761;BME280;10039;42.632;23.408;2023-05-24T06:26:53;94870.06;;;20.42;54.14
19761;BME280;10039;42.632;23.408;2023-05-24T06:29:18;94874.44;;;20.34;52.93
19761;BME280;10039;42.632;23.408;2023-05-24T06:31:46;94873.66;;;20.33;53.76
19761;BME280;10039;42.632;23.408;2023-05-24T06:34:14;94863.38;;;20.37;54.09
19761;BME280;10039;42.632;23.408;2023-05-24T06:36:42;94873.66;;;20.33;54.38
19761;BME280;10039;42.632;23.408;2023-05-24T06:39:08;94868.88;;;20.68;54.36
19761;BME280;10039;42.632;23.408;2023-05-24T06:41:35;94845.41;;;20.85;54.09
19761;BME280;10039;42.632;23.408;2023-05-24T06:44:00;94859.56;;;21.26;53.49
19761;BME280;10039;42.632;23.408;2023-05-24T06:46:26;94866.03;;;21.59;54.01
19761;BME280;10039;42.632;23.408;2023-05-24T06:48:51;94851.41;;;21.56;52.68
19761;BME280;10039;42.632;23.408;2023-05-24T06:51:17;94863.69;;;21.83;52.97
19761;BME280;10039;42.632;23.408;2023-05-24T06:53:42;94839.91;;;21.72;51.53
19761;BME280;10039;42.632;23.408;2023-05-24T06:56:16;94842.47;;;21.87;51.39
19761;BME280;10039;42.632;23.408;2023-05-24T06:58:42;94839.94;;;22.25;50.62
19761;BME280;10039;42.632;23.408;2023-05-24T07:01:08;94844.97;;;22.43;49.50
19761;BME280;10039;42.632;23.408;2023-05-24T07:03:34;94851.66;;;22.48;49.20
19761;BME280;10039;42.632;23.408;2023-05-24T07:05:59;94850.47;;;22.65;49.05
19761;BME280;10039;42.632;23.408;2023-05-24T07:08:25;94822.78;;;22.67;49.00
19761;BME280;10039;42.632;23.408;2023-05-24T07:10:52;94854.31;;;23.17;49.40
19761;BME280;10039;42.632;23.408;2023-05-24T07:13:18;94844.88;;;23.29;48.27
19761;BME280;10039;42.632;23.408;2023-05-24T07:15:45;94851.34;;;23.31;47.22
19761;BME280;10039;42.632;23.408;2023-05-24T07:18:11;94823.06;;;23.07;48.04
19761;BME280;10039;42.632;23.408;2023-05-24T07:20:37;94840.69;;;23.39;48.30
19761;BME280;10039;42.632;23.408;2023-05-24T07:23:02;94852.78;;;23.71;47.67
19761;BME280;10039;42.632;23.408;2023-05-24T07:25:28;94866.41;;;23.76;47.60
19761;BME280;10039;42.632;23.408;2023-05-24T07:27:54;94857.75;;;23.72;47.82
19761;BME280;10039;42.632;23.408;2023-05-24T07:30:19;94849.06;;;23.90;47.31
19761;BME280;10039;42.632;23.408;2023-05-24T07:32:45;94858.72;;;23.91;47.35
19761;BME280;10039;42.632;23.408;2023-05-24T07:35:11;94833.16;;;24.05;46.29
19761;BME280;10039;42.632;23.408;2023-05-24T07:37:40;94857.81;;;24.40;45.74
19761;BME280;10039;42.632;23.408;2023-05-24T07:40:06;94848.59;;;24.54;45.98
19761;BME280;10039;42.632;23.408;2023-05-24T07:42:35;94855.72;;;24.73;45.37
19761;BME280;10039;42.632;23.408;2023-05-24T07:45:01;94857.00;;;25.07;45.35
19761;BME280;10039;42.632;23.408;2023-05-24T07:47:27;94853.16;;;25.26;44.82
19761;BME280;10039;42.632;23.408;2023-05-24T07:49:52;94848.72;;;25.23;44.41
19761;BME280;10039;42.632;23.408;2023-05-24T07:52:18;94856.72;;;25.10;44.47
19761;BME280;10039;42.632;23.408;2023-05-24T07:54:44;94847.31;;;25.06;44.37
19761;BME280;10039;42.632;23.408;2023-05-24T07:57:10;94852.22;;;25.18;43.70
19761;BME280;10039;42.632;23.408;2023-05-24T07:59:36;94855.56;;;24.95;44.19
19761;BME280;10039;42.632;23.408;2023-05-24T08:02:02;94851.25;;;25.10;44.55
19761;BME280;10039;42.632;23.408;2023-05-24T08:04:30;94827.06;;;24.91;45.23
19761;BME280;10039;42.632;23.408;2023-05-24T08:06:57;94842.91;;;24.98;45.10
19761;BME280;10039;42.632;23.408;2023-05-24T08:09:22;94831.78;;;25.25;45.83
19761;BME280;10039;42.632;23.408;2023-05-24T08:11:48;94843.25;;;25.82;44.98
19761;BME280;10039;42.632;23.408;2023-05-24T08:14:13;94843.47;;;26.08;43.06
19761;BME280;10039;42.632;23.408;2023-05-24T08:16:38;94834.34;;;26.24;42.71
19761;BME280;10039;42.632;23.408;2023-05-24T08:19:04;94839.81;;;26.24;40.53
19761;BME280;10039;42.632;23.408;2023-05-24T08:21:29;94840.59;;;26.19;40.38
19761;BME280;10039;42.632;23.408;2023-05-24T08:23:55;94839.44;;;26.33;40.08
19761;BME280;10039;42.632;23.408;2023-05-24T08:26:21;94836.63;;;26.81;39.55
19761;BME280;10039;42.632;23.408;2023-05-24T08:28:48;94830.69;;;26.77;37.65
19761;BME280;10039;42.632;23.408;2023-05-24T08:31:13;94826.25;;;26.74;37.41
19761;BME280;10039;42.632;23.408;2023-05-24T08:33:39;94804.19;;;26.48;38.15
19761;BME280;10039;42.632;23.408;2023-05-24T08:36:05;94825.28;;;26.11;38.13
19761;BME280;10039;42.632;23.408;2023-05-24T08:38:31;94808.75;;;26.40;38.88
19761;BME280;10039;42.632;23.408;2023-05-24T08:40:56;94833.13;;;26.19;38.62
19761;BME280;10039;42.632;23.408;2023-05-24T08:43:22;94827.88;;;26.64;38.93
19761;BME280;10039;42.632;23.408;2023-05-24T08:45:49;94833.78;;;26.68;36.82
19761;BME280;10039;42.632;23.408;2023-05-24T08:48:16;94827.69;;;26.38;35.01
19761;BME280;10039;42.632;23.408;2023-05-24T08:50:43;94823.06;;;26.88;36.08
19761;BME280;10039;42.632;23.408;2023-05-24T08:53:09;94826.56;;;27.07;37.21
19761;BME280;10039;42.632;23.408;2023-05-24T08:55:35;94826.38;;;27.49;36.95
19761;BME280;10039;42.632;23.408;2023-05-24T08:58:02;94816.94;;;27.76;36.94
19761;BME280;10039;42.632;23.408;2023-05-24T09:00:28;94817.16;;;27.91;33.15
19761;BME280;10039;42.632;23.408;2023-05-24T09:02:55;94822.66;;;28.04;33.32
19761;BME280;10039;42.632;23.408;2023-05-24T09:05:21;94828.38;;;28.32;33.96
19761;BME280;10039;42.632;23.408;2023-05-24T09:07:48;94826.56;;;28.48;34.24
19761;BME280;10039;42.632;23.408;2023-05-24T09:10:14;94826.50;;;28.86;33.76
19761;BME280;10039;42.632;23.408;2023-05-24T09:12:44;94807.34;;;28.94;33.56
19761;BME280;10039;42.632;23.408;2023-05-24T09:15:13;94830.44;;;29.11;32.96
19761;BME280;10039;42.632;23.408;2023-05-24T09:17:38;94825.72;;;28.99;32.17
19761;BME280;10039;42.632;23.408;2023-05-24T09:20:06;94821.47;;;29.11;32.77
19761;BME280;10039;42.632;23.408;2023-05-24T09:22:34;94809.94;;;29.33;31.86
19761;BME280;10039;42.632;23.408;2023-05-24T09:25:02;94824.22;;;29.11;30.98
19761;BME280;10039;42.632;23.408;2023-05-24T09:27:31;94801.53;;;28.97;31.41
19761;BME280;10039;42.632;23.408;2023-05-24T09:29:57;94810.06;;;29.07;32.57
19761;BME280;10039;42.632;23.408;2023-05-24T09:32:23;94813.56;;;29.28;31.46
19761;BME280;10039;42.632;23.408;2023-05-24T09:34:51;94810.88;;;29.56;31.55
19761;BME280;10039;42.632;23.408;2023-05-24T09:37:19;94809.50;;;29.62;30.37
19761;BME280;10039;42.632;23.408;2023-05-24T09:39:47;94808.03;;;29.61;30.64
19761;BME280;10039;42.632;23.408;2023-05-24T09:42:20;94800.28;;;29.60;30.23
19761;BME280;10039;42.632;23.408;2023-05-24T09:45:05;94811.06;;;29.78;30.36
19761;BME280;10039;42.632;23.408;2023-05-24T09:47:41;94801.81;;;29.48;28.75
19761;BME280;10039;42.632;23.408;2023-05-24T09:50:12;94804.06;;;28.95;30.84
19761;BME280;10039;42.632;23.408;2023-05-24T09:52:37;94788.34;;;29.37;31.46
19761;BME280;10039;42.632;23.408;2023-05-24T09:55:19;94793.19;;;29.92;30.29
19761;BME280;10039;42.632;23.408;2023-05-24T09:57:49;94797.97;;;29.71;29.16
19761;BME280;10039;42.632;23.408;2023-05-24T10:00:23;94799.81;;;29.96;29.41
19761;BME280;10039;42.632;23.408;2023-05-24T10:03:06;94803.50;;;29.51;30.78
19761;BME280;10039;42.632;23.408;2023-05-24T10:05:32;94795.47;;;29.80;30.16
19761;BME280;10039;42.632;23.408;2023-05-24T10:07:58;94795.19;;;29.91;29.55
19761;BME280;10039;42.632;23.408;2023-05-24T10:10:29;94782.69;;;29.63;29.01
19761;BME280;10039;42.632;23.408;2023-05-24T10:12:56;94792.34;;;29.77;29.18
19761;BME280;10039;42.632;23.408;2023-05-24T10:15:22;94784.16;;;29.64;29.34
19761;BME280;10039;42.632;23.408;2023-05-24T10:17:47;94781.13;;;29.75;29.98
19761;BME280;10039;42.632;23.408;2023-05-24T10:20:13;94760.22;;;29.99;30.08
19761;BME280;10039;42.632;23.408;2023-05-24T10:22:42;94787.91;;;30.29;29.33
19761;BME280;10039;42.632;23.408;2023-05-24T10:25:20;94771.16;;;30.55;29.99
19761;BME280;10039;42.632;23.408;2023-05-24T10:27:54;94777.88;;;29.83;29.16
19761;BME280;10039;42.632;23.408;2023-05-24T10:32:49;94776.19;;;29.80;29.27
19761;BME280;10039;42.632;23.408;2023-05-24T10:35:17;94776.50;;;29.70;29.76
19761;BME280;10039;42.632;23.408;2023-05-24T10:37:47;94741.13;;;29.46;29.42
19761;BME280;10039;42.632;23.408;2023-05-24T10:40:21;94771.22;;;29.99;29.51
19761;BME280;10039;42.632;23.408;2023-05-24T10:42:50;94741.16;;;30.09;30.28
19761;BME280;10039;42.632;23.408;2023-05-24T10:45:31;94768.84;;;30.39;28.24
19761;BME280;10039;42.632;23.408;2023-05-24T10:48:06;94761.72;;;30.08;27.37
19761;BME280;10039;42.632;23.408;2023-05-24T10:50:32;94743.84;;;30.37;29.69
19761;BME280;10039;42.632;23.408;2023-05-24T10:58:15;94737.84;;;30.46;28.22
19761;BME280;10039;42.632;23.408;2023-05-24T11:00:45;94748.31;;;30.47;28.80
19761;BME280;10039;42.632;23.408;2023-05-24T11:03:11;94740.22;;;30.49;28.15
19761;BME280;10039;42.632;23.408;2023-05-24T11:08:21;94741.25;;;30.74;28.24
19761;BME280;10039;42.632;23.408;2023-05-24T11:10:47;94742.72;;;30.75;28.07
19761;BME280;10039;42.632;23.408;2023-05-24T11:13:13;94739.22;;;30.67;27.97
19761;BME280;10039;42.632;23.408;2023-05-24T11:15:38;94735.72;;;30.67;27.71
19761;BME280;10039;42.632;23.408;2023-05-24T11:20:41;94732.25;;;29.95;28.33
19761;BME280;10039;42.632;23.408;2023-05-24T11:23:08;94740.25;;;30.06;28.30
19761;BME280;10039;42.632;23.408;2023-05-24T11:25:37;94734.13;;;30.43;27.97
19761;BME280;10039;42.632;23.408;2023-05-24T11:28:06;94729.88;;;30.35;28.19
19761;BME280;10039;42.632;23.408;2023-05-24T11:30:32;94719.50;;;30.05;28.23
19761;BME280;10039;42.632;23.408;2023-05-24T11:32:58;94735.75;;;30.24;28.85
19761;BME280;10039;42.632;23.408;2023-05-24T11:35:26;94735.41;;;30.35;28.81
19761;BME280;10039;42.632;23.408;2023-05-24T11:37:56;94724.28;;;30.12;28.04
19761;BME280;10039;42.632;23.408;2023-05-24T11:40:21;94725.59;;;30.19;28.21
19761;BME280;10039;42.632;23.408;2023-05-24T11:42:48;94722.94;;;30.41;29.99
19761;BME280;10039;42.632;23.408;2023-05-24T11:45:16;94723.25;;;29.67;28.80
19761;BME280;10039;42.632;23.408;2023-05-24T11:47:42;94717.69;;;29.32;29.04
19761;BME280;10039;42.632;23.408;2023-05-24T11:50:08;94707.06;;;29.36;29.14
19761;BME280;10039;42.632;23.408;2023-05-24T11:52:38;94715.34;;;28.95;29.09
19761;BME280;10039;42.632;23.408;2023-05-24T11:55:05;94713.38;;;28.82;28.64
19761;BME280;10039;42.632;23.408;2023-05-24T11:57:36;94699.94;;;28.92;29.35
19761;BME280;10039;42.632;23.408;2023-05-24T12:00:05;94702.44;;;29.31;29.30
19761;BME280;10039;42.632;23.408;2023-05-24T12:02:35;94703.13;;;29.24;29.24
19761;BME280;10039;42.632;23.408;2023-05-24T12:05:08;94699.34;;;29.55;29.21
19761;BME280;10039;42.632;23.408;2023-05-24T12:07:34;94677.41;;;29.70;28.95
19761;BME280;10039;42.632;23.408;2023-05-24T12:10:02;94696.72;;;30.12;29.11
19761;BME280;10039;42.632;23.408;2023-05-24T12:12:28;94695.31;;;30.26;28.40
19761;BME280;10039;42.632;23.408;2023-05-24T12:14:54;94691.50;;;30.44;28.90
19761;BME280;10039;42.632;23.408;2023-05-24T12:17:20;94703.03;;;30.28;28.79
19761;BME280;10039;42.632;23.408;2023-05-24T12:19:48;94691.22;;;30.12;27.94
19761;BME280;10039;42.632;23.408;2023-05-24T12:22:15;94697.13;;;30.16;28.05
19761;BME280;10039;42.632;23.408;2023-05-24T12:24:40;94688.31;;;30.18;28.04
19761;BME280;10039;42.632;23.408;2023-05-24T12:27:06;94690.09;;;30.00;27.90
19761;BME280;10039;42.632;23.408;2023-05-24T12:29:37;94695.41;;;29.98;28.69
19761;BME280;10039;42.632;23.408;2023-05-24T12:32:04;94668.81;;;29.45;29.01
19761;BME280;10039;42.632;23.408;2023-05-24T12:34:31;94686.63;;;29.79;28.58
19761;BME280;10039;42.632;23.408;2023-05-24T12:36:56;94681.19;;;29.87;29.31
19761;BME280;10039;42.632;23.408;2023-05-24T12:39:23;94672.44;;;29.68;29.03
19761;BME280;10039;42.632;23.408;2023-05-24T12:41:55;94674.88;;;30.07;29.09
19761;BME280;10039;42.632;23.408;2023-05-24T12:44:33;94656.69;;;30.11;28.20
19761;BME280;10039;42.632;23.408;2023-05-24T12:47:00;94659.38;;;30.39;28.68
19761;BME280;10039;42.632;23.408;2023-05-24T12:49:26;94675.84;;;30.24;27.88
19761;BME280;10039;42.632;23.408;2023-05-24T12:51:53;94674.81;;;30.42;29.46
19761;BME280;10039;42.632;23.408;2023-05-24T12:54:21;94666.63;;;30.80;29.56
19761;BME280;10039;42.632;23.408;2023-05-24T12:56:47;94668.56;;;30.42;28.21
19761;BME280;10039;42.632;23.408;2023-05-24T12:59:13;94651.72;;;30.75;28.27
19761;BME280;10039;42.632;23.408;2023-05-24T13:01:39;94666.06;;;30.08;28.83
19761;BME280;10039;42.632;23.408;2023-05-24T13:04:05;94655.06;;;30.08;28.73
19761;BME280;10039;42.632;23.408;2023-05-24T13:06:30;94662.28;;;30.34;28.46
19761;BME280;10039;42.632;23.408;2023-05-24T13:08:56;94659.88;;;30.23;28.44
19761;BME280;10039;42.632;23.408;2023-05-24T13:11:21;94643.94;;;30.51;28.72
19761;BME280;10039;42.632;23.408;2023-05-24T13:13:50;94658.41;;;30.29;29.35
19761;BME280;10039;42.632;23.408;2023-05-24T13:16:16;94659.81;;;30.58;28.14